createdAt,value
2022-08-20T00:02:16.922Z,2.40
2022-08-20T00:04:44.553Z,2.20
2022-08-20T00:07:12.325Z,2.00
2022-08-20T00:09:41.460Z,2.25
2022-08-20T00:12:09.824Z,1.95
2022-08-20T00:14:37.950Z,2.28
2022-08-20T00:17:06.726Z,2.00
2022-08-20T00:19:35.644Z,2.55
2022-08-20T00:22:03.398Z,2.50
2022-08-20T00:24:31.271Z,2.63
2022-08-20T00:26:58.679Z,2.45
2022-08-20T00:29:26.097Z,2.60
2022-08-20T00:31:53.478Z,2.40
2022-08-20T00:34:21.024Z,2.28
2022-08-20T00:36:49.795Z,2.75
2022-08-20T00:39:17.211Z,2.83
2022-08-20T00:41:44.607Z,2.83
2022-08-20T00:44:14.550Z,3.42
2022-08-20T00:46:43.063Z,3.10
2022-08-20T00:49:15.558Z,3.03
2022-08-20T00:51:45.692Z,3.10
2022-08-20T00:54:18.718Z,3.00
2022-08-20T00:56:50.466Z,3.13
2022-08-20T00:59:23.701Z,3.08
2022-08-20T01:01:55.220Z,3.35
2022-08-20T01:04:26.151Z,3.00
2022-08-20T01:06:53.600Z,3.03
2022-08-20T01:09:50.329Z,2.95
2022-08-20T01:12:10.695Z,2.65
2022-08-20T01:14:43.964Z,2.65
2022-08-20T01:17:15.915Z,2.93
2022-08-20T01:19:48.004Z,3.03
2022-08-20T01:22:46.740Z,3.25
2022-08-20T01:25:23.941Z,2.97
2022-08-20T01:27:55.474Z,2.60
2022-08-20T01:30:27.408Z,2.90
2022-08-20T01:32:54.988Z,2.80
2022-08-20T01:35:25.738Z,2.78
2022-08-20T01:37:53.177Z,3.20
2022-08-20T01:40:38.338Z,2.88
2022-08-20T01:43:09.113Z,2.70
2022-08-20T01:45:40.209Z,3.00
2022-08-20T01:48:08.675Z,2.60
2022-08-20T01:50:39.855Z,2.90
2022-08-20T01:53:19.225Z,2.92
2022-08-20T01:55:46.741Z,3.40
2022-08-20T01:58:15.721Z,4.90
2022-08-20T02:00:44.062Z,4.30
2022-08-20T02:03:11.715Z,4.57
2022-08-20T02:05:39.138Z,5.10
2022-08-20T02:08:06.807Z,5.20
2022-08-20T02:10:36.373Z,6.05
2022-08-20T02:13:07.471Z,6.65
2022-08-20T02:15:37.602Z,7.75
2022-08-20T02:18:13.051Z,7.70
2022-08-20T02:20:43.327Z,7.07
2022-08-20T02:23:11.818Z,7.38
2022-08-20T02:25:41.494Z,6.68
2022-08-20T02:28:13.947Z,6.50
2022-08-20T02:30:46.899Z,7.07
2022-08-20T02:33:17.131Z,6.50
2022-08-20T02:35:48.427Z,6.93
2022-08-20T02:38:16.599Z,7.50
2022-08-20T02:40:45.300Z,6.43
2022-08-20T02:43:14.397Z,7.40
2022-08-20T02:45:44.603Z,6.75
2022-08-20T02:48:20.577Z,6.82
2022-08-20T02:50:50.701Z,5.43
2022-08-20T02:53:18.283Z,5.82
2022-08-20T02:55:45.708Z,6.00
2022-08-20T02:58:13.167Z,7.15
2022-08-20T03:00:41.171Z,6.97
2022-08-20T03:03:11.543Z,7.10
2022-08-20T03:05:40.815Z,6.80
2022-08-20T03:08:10.297Z,6.60
2022-08-20T03:10:39.340Z,4.50
2022-08-20T03:13:12.130Z,4.60
2022-08-20T03:15:41.734Z,5.25
2022-08-20T03:18:10.651Z,5.40
2022-08-20T03:20:38.579Z,5.47
2022-08-20T03:23:07.112Z,5.30
2022-08-20T03:25:34.658Z,5.95
2022-08-20T03:28:02.620Z,6.07
2022-08-20T03:30:31.161Z,5.70
2022-08-20T03:32:58.824Z,5.90
2022-08-20T03:35:29.272Z,5.22
2022-08-20T03:37:57.822Z,4.93
2022-08-20T03:40:29.010Z,4.82
2022-08-20T03:42:56.725Z,4.45
2022-08-20T03:45:25.469Z,4.90
2022-08-20T03:47:54.966Z,5.90
2022-08-20T03:50:26.636Z,5.88
2022-08-20T03:52:56.316Z,5.75
2022-08-20T03:55:25.192Z,4.88
2022-08-20T03:57:56.104Z,4.70
2022-08-20T04:00:27.056Z,4.70
2022-08-20T04:02:55.246Z,4.32
2022-08-20T04:05:25.498Z,4.20
2022-08-20T04:08:02.922Z,4.07
2022-08-20T04:10:31.386Z,5.35
2022-08-20T04:12:58.871Z,5.38
2022-08-20T04:15:27.210Z,5.50
2022-08-20T04:17:55.143Z,6.00
2022-08-20T04:20:25.933Z,6.10
2022-08-20T04:22:59.369Z,5.55
2022-08-20T04:25:29.525Z,6.05
2022-08-20T04:27:57.814Z,5.03
2022-08-20T04:30:26.099Z,7.05
2022-08-20T04:32:54.320Z,3.97
2022-08-20T04:35:24.315Z,3.10
2022-08-20T04:37:58.839Z,1.88
2022-08-20T04:40:46.550Z,1.80
2022-08-20T04:43:14.377Z,2.20
2022-08-20T04:45:42.313Z,2.22
2022-08-20T04:48:14.716Z,2.60
2022-08-20T04:50:44.522Z,2.45
2022-08-20T04:53:13.534Z,2.88
2022-08-20T04:55:43.814Z,3.17
2022-08-20T04:58:18.092Z,2.85
2022-08-20T05:03:14.609Z,1.75
2022-08-20T05:05:42.185Z,3.58
2022-08-20T05:08:11.637Z,4.93
2022-08-20T05:10:48.754Z,4.65
2022-08-20T05:13:17.049Z,5.38
2022-08-20T05:15:45.556Z,3.00
2022-08-20T05:18:14.192Z,4.97
2022-08-20T05:20:43.340Z,5.57
2022-08-20T05:23:13.498Z,5.25
2022-08-20T05:25:42.761Z,5.30
2022-08-20T05:28:17.723Z,3.85
2022-08-20T05:30:47.689Z,3.13
2022-08-20T05:33:19.832Z,3.78
2022-08-20T05:35:49.288Z,3.38
2022-08-20T05:38:19.380Z,4.97
2022-08-20T05:40:46.878Z,5.38
2022-08-20T05:43:16.053Z,3.40
2022-08-20T05:45:44.446Z,4.13
2022-08-20T05:48:14.366Z,6.35
2022-08-20T05:50:43.683Z,5.63
2022-08-20T05:53:11.316Z,4.85
2022-08-20T05:55:40.257Z,4.90
2022-08-20T05:58:15.140Z,3.38
2022-08-20T06:00:43.854Z,2.72
2022-08-20T06:03:28.725Z,3.22
2022-08-20T06:05:56.479Z,3.38
2022-08-20T06:08:24.139Z,5.25
2022-08-20T06:10:51.924Z,5.45
2022-08-20T06:13:19.321Z,4.40
2022-08-20T06:15:48.136Z,4.50
2022-08-20T06:18:28.028Z,3.65
2022-08-20T06:20:56.177Z,3.75
2022-08-20T06:23:25.202Z,4.15
2022-08-20T06:25:53.429Z,3.85
2022-08-20T06:28:21.012Z,3.05
2022-08-20T06:30:49.753Z,2.47
2022-08-20T06:33:17.158Z,3.00
2022-08-20T06:35:44.672Z,2.92
2022-08-20T06:38:14.650Z,2.83
2022-08-20T06:40:42.136Z,3.80
2022-08-20T06:43:09.860Z,4.15
2022-08-20T06:45:38.863Z,4.88
2022-08-20T06:48:11.343Z,4.35
2022-08-20T06:50:47.731Z,6.55
2022-08-20T06:53:18.680Z,7.13
2022-08-20T06:55:49.605Z,8.20
2022-08-20T06:58:35.654Z,5.45
2022-08-20T07:01:10.229Z,3.97
2022-08-20T07:03:40.588Z,4.38
2022-08-20T07:08:50.146Z,4.70
2022-08-20T07:11:17.658Z,4.88
2022-08-20T07:13:45.333Z,5.20
2022-08-20T07:16:12.826Z,5.35
2022-08-20T07:18:41.610Z,5.00
2022-08-20T07:21:12.868Z,3.75
2022-08-20T07:23:41.638Z,3.45
2022-08-20T07:26:09.063Z,3.30
2022-08-20T07:28:36.482Z,3.50
2022-08-20T07:31:21.480Z,3.88
2022-08-20T07:33:50.466Z,3.85
2022-08-20T07:36:18.486Z,3.50
2022-08-20T07:38:47.656Z,3.60
2022-08-20T07:41:15.564Z,3.90
2022-08-20T07:43:45.116Z,4.10
2022-08-20T07:46:13.499Z,4.55
2022-08-20T07:48:46.139Z,4.72
2022-08-20T07:51:17.803Z,3.85
2022-08-20T07:53:46.663Z,4.30
2022-08-20T07:56:16.362Z,4.13
2022-08-20T07:58:49.898Z,4.22
2022-08-20T08:01:18.493Z,4.30
2022-08-20T08:03:50.328Z,3.75
2022-08-20T08:06:30.014Z,4.32
2022-08-20T08:09:00.155Z,4.35
2022-08-20T08:11:27.609Z,4.43
2022-08-20T08:13:55.208Z,4.40
2022-08-20T08:16:22.782Z,4.80
2022-08-20T08:18:56.499Z,4.93
2022-08-20T08:21:27.120Z,5.60
2022-08-20T08:23:54.920Z,5.93
2022-08-20T08:26:22.349Z,5.40
2022-08-20T08:28:49.773Z,5.80
2022-08-20T08:31:17.276Z,5.32
2022-08-20T08:33:45.370Z,5.35
2022-08-20T08:36:15.100Z,5.45
2022-08-20T08:38:46.683Z,4.97
2022-08-20T08:41:19.364Z,4.35
2022-08-20T08:43:50.020Z,4.70
2022-08-20T08:46:21.521Z,5.07
2022-08-20T08:48:53.369Z,5.03
2022-08-20T08:51:27.752Z,4.68
2022-08-20T08:53:57.957Z,4.75
2022-08-20T08:56:29.656Z,5.22
2022-08-20T08:59:01.331Z,5.30
2022-08-20T09:01:54.187Z,4.70
2022-08-20T09:04:21.941Z,4.47
2022-08-20T09:06:53.423Z,4.80
2022-08-20T09:09:25.236Z,4.82
2022-08-20T09:11:55.926Z,4.90
2022-08-20T09:14:25.301Z,11.00
2022-08-20T09:16:53.577Z,6.50
2022-08-20T09:19:21.239Z,4.53
2022-08-20T09:21:48.657Z,4.00
2022-08-20T09:24:16.281Z,3.72
2022-08-20T09:26:45.056Z,3.70
2022-08-20T09:29:12.773Z,4.20
2022-08-20T09:31:40.269Z,3.92
2022-08-20T09:34:08.378Z,4.10
2022-08-20T09:36:36.136Z,3.60
2022-08-20T09:39:03.603Z,3.72
2022-08-20T09:41:33.873Z,5.13
2022-08-20T09:44:03.672Z,5.30
2022-08-20T09:46:31.058Z,5.55
2022-08-20T09:48:58.475Z,6.38
2022-08-20T09:51:25.960Z,6.07
2022-08-20T09:53:53.430Z,4.97
2022-08-20T09:56:20.872Z,4.40
2022-08-20T09:58:52.775Z,5.25
2022-08-20T10:01:23.260Z,6.55
2022-08-20T10:03:51.456Z,7.20
2022-08-20T10:06:20.705Z,9.90
2022-08-20T10:11:41.276Z,14.50
2022-08-20T10:14:09.848Z,11.60
2022-08-20T10:16:38.634Z,7.97
2022-08-20T10:19:06.775Z,6.28
2022-08-20T10:21:38.660Z,5.75
2022-08-20T10:24:06.575Z,4.88
2022-08-20T10:26:34.011Z,4.47
2022-08-20T10:29:01.416Z,5.43
2022-08-20T10:31:29.137Z,4.72
2022-08-20T10:33:58.020Z,4.50
2022-08-20T10:36:25.414Z,4.22
2022-08-20T10:38:52.863Z,4.30
2022-08-20T10:41:21.329Z,4.00
2022-08-20T10:43:48.908Z,4.97
2022-08-20T10:46:16.311Z,4.57
2022-08-20T10:48:44.302Z,4.82
2022-08-20T10:51:13.095Z,4.68
2022-08-20T10:53:40.554Z,4.72
2022-08-20T10:56:08.354Z,4.53
2022-08-20T10:58:39.490Z,4.47
2022-08-20T11:01:07.746Z,4.25
2022-08-20T11:03:35.679Z,4.70
2022-08-20T11:06:03.318Z,4.95
2022-08-20T11:08:34.502Z,4.93
2022-08-20T11:11:03.845Z,5.10
2022-08-20T11:13:31.238Z,5.20
2022-08-20T11:15:58.628Z,4.32
2022-08-20T11:18:26.027Z,6.80
2022-08-20T11:20:53.556Z,5.45
2022-08-20T11:23:20.931Z,5.43
2022-08-20T11:25:49.950Z,6.03
2022-08-20T11:28:17.432Z,5.88
2022-08-20T11:30:58.916Z,5.75
2022-08-20T11:33:26.294Z,5.78
2022-08-20T11:35:53.866Z,5.85
2022-08-20T11:38:21.275Z,6.15
2022-08-20T11:40:50.010Z,6.20
2022-08-20T11:43:18.347Z,5.72
2022-08-20T11:45:48.414Z,6.05
2022-08-20T11:48:16.795Z,6.13
2022-08-20T11:50:44.229Z,5.47
2022-08-20T11:53:11.774Z,6.22
2022-08-20T11:55:39.922Z,5.10
2022-08-20T11:58:08.747Z,5.28
2022-08-20T12:00:36.935Z,5.28
2022-08-20T12:03:09.105Z,5.35
2022-08-20T12:05:37.596Z,5.05
2022-08-20T12:08:05.379Z,4.78
2022-08-20T12:10:33.558Z,6.10
2022-08-20T12:13:02.592Z,5.50
2022-08-20T12:15:33.759Z,5.18
2022-08-20T12:18:01.333Z,5.80
2022-08-20T12:20:28.806Z,5.18
2022-08-20T12:22:56.571Z,5.32
2022-08-20T12:25:24.009Z,5.85
2022-08-20T12:27:51.487Z,5.85
2022-08-20T12:30:20.923Z,5.60
2022-08-20T12:32:49.686Z,9.40
2022-08-20T12:35:18.462Z,6.03
2022-08-20T12:37:47.298Z,5.20
2022-08-20T12:40:18.222Z,4.80
2022-08-20T12:42:58.179Z,4.57
2022-08-20T12:45:25.803Z,4.53
2022-08-20T12:48:02.188Z,4.03
2022-08-20T12:50:31.786Z,4.15
2022-08-20T12:52:59.944Z,3.80
2022-08-20T12:55:27.732Z,3.60
2022-08-20T12:57:59.204Z,3.70
2022-08-20T13:00:29.413Z,3.78
2022-08-20T13:03:00.497Z,4.50
2022-08-20T13:05:28.936Z,4.63
2022-08-20T13:07:57.302Z,4.43
2022-08-20T13:10:27.583Z,4.40
2022-08-20T13:12:55.375Z,4.13
2022-08-20T13:15:23.461Z,4.22
2022-08-20T13:17:54.784Z,4.65
2022-08-20T13:20:25.600Z,4.45
2022-08-20T13:22:59.346Z,4.85
2022-08-20T13:25:26.895Z,4.38
2022-08-20T13:27:58.177Z,4.55
2022-08-20T13:30:25.917Z,4.50
2022-08-20T13:32:53.399Z,4.25
2022-08-20T13:35:21.645Z,4.10
2022-08-20T13:37:51.240Z,3.50
2022-08-20T13:40:19.245Z,3.13
2022-08-20T13:42:46.807Z,2.55
2022-08-20T13:45:14.716Z,2.90
2022-08-20T13:47:42.975Z,2.33
2022-08-20T13:50:12.822Z,2.53
2022-08-20T13:52:42.766Z,2.63
2022-08-20T13:55:17.198Z,2.80
2022-08-20T13:57:45.343Z,2.05
2022-08-20T14:00:16.810Z,3.15
2022-08-20T14:02:45.286Z,4.28
2022-08-20T14:05:18.375Z,4.03
2022-08-20T14:07:48.042Z,4.07
2022-08-20T14:10:20.278Z,4.13
2022-08-20T14:12:48.308Z,4.25
2022-08-20T14:15:16.024Z,4.30
2022-08-20T14:17:49.845Z,3.70
2022-08-20T14:20:20.386Z,2.80
2022-08-20T14:22:47.957Z,3.05
2022-08-20T14:25:20.477Z,3.58
2022-08-20T14:27:47.995Z,2.10
2022-08-20T14:30:19.057Z,2.20
2022-08-20T14:32:47.262Z,3.08
2022-08-20T14:35:14.882Z,1.30
2022-08-20T14:37:44.970Z,1.30
2022-08-20T14:40:17.285Z,1.35
2022-08-20T14:42:51.346Z,1.33
2022-08-20T14:45:20.283Z,2.30
2022-08-20T14:47:53.522Z,3.22
2022-08-20T14:50:23.508Z,3.55
2022-08-20T14:52:50.898Z,3.08
2022-08-20T14:55:20.644Z,2.00
2022-08-20T14:57:49.929Z,1.52
2022-08-20T15:00:20.672Z,1.73
2022-08-20T15:02:48.592Z,1.45
2022-08-20T15:05:16.812Z,1.50
2022-08-20T15:07:48.421Z,1.30
2022-08-20T15:10:18.576Z,1.40
2022-08-20T15:12:46.214Z,1.40
2022-08-20T15:15:16.473Z,1.55
2022-08-20T15:17:46.331Z,1.30
2022-08-20T15:20:20.399Z,1.60
2022-08-20T15:22:49.654Z,1.55
2022-08-20T15:25:21.418Z,1.80
2022-08-20T15:27:49.772Z,2.45
2022-08-20T15:30:21.648Z,1.88
2022-08-20T15:32:54.657Z,1.40
2022-08-20T15:35:26.802Z,1.53
2022-08-20T15:37:57.434Z,1.60
2022-08-20T15:40:28.550Z,1.70
2022-08-20T15:42:56.667Z,3.58
2022-08-20T15:45:25.646Z,2.72
2022-08-20T15:47:56.018Z,2.60
2022-08-20T15:50:35.667Z,2.20
2022-08-20T15:53:09.574Z,2.33
2022-08-20T15:55:39.568Z,2.00
2022-08-20T15:58:13.345Z,2.05
2022-08-20T16:00:52.451Z,1.90
2022-08-20T16:03:46.195Z,1.58
2022-08-20T16:06:18.323Z,1.90
2022-08-20T16:09:04.358Z,1.73
2022-08-20T16:11:46.213Z,2.13
2022-08-20T16:14:16.960Z,2.08
2022-08-20T16:16:49.652Z,1.83
2022-08-20T16:19:22.712Z,1.75
2022-08-20T16:21:51.382Z,2.08
2022-08-20T16:24:19.825Z,2.13
2022-08-20T16:27:02.544Z,2.15
2022-08-20T16:29:45.486Z,1.92
2022-08-20T16:32:24.093Z,2.13
2022-08-20T16:34:56.754Z,2.03
2022-08-20T16:37:31.123Z,2.35
2022-08-20T16:40:10.074Z,2.30
2022-08-20T16:42:40.040Z,2.20
2022-08-20T16:45:12.625Z,2.15
2022-08-20T16:47:41.655Z,2.08
2022-08-20T16:50:12.055Z,2.25
2022-08-20T16:52:43.150Z,2.00
2022-08-20T16:55:10.881Z,2.30
2022-08-20T16:57:38.648Z,2.15
2022-08-20T17:00:12.950Z,2.10
2022-08-20T17:02:53.182Z,1.95
2022-08-20T17:05:21.237Z,1.73
2022-08-20T17:07:52.962Z,1.50
2022-08-20T17:10:24.675Z,1.80
2022-08-20T17:12:54.160Z,1.70
2022-08-20T17:15:25.497Z,1.77
2022-08-20T17:17:55.832Z,1.50
2022-08-20T17:20:25.864Z,1.73
2022-08-20T17:23:11.988Z,1.70
2022-08-20T17:25:39.452Z,1.63
2022-08-20T17:28:14.879Z,1.60
2022-08-20T17:30:42.422Z,1.45
2022-08-20T17:33:28.652Z,3.55
2022-08-20T17:36:00.355Z,2.10
2022-08-20T17:38:33.299Z,1.73
2022-08-20T17:41:02.572Z,2.05
2022-08-20T17:43:32.848Z,2.25
2022-08-20T17:46:04.418Z,4.75
2022-08-20T17:48:38.045Z,6.43
2022-08-20T17:51:14.489Z,3.50
2022-08-20T17:53:45.056Z,4.00
2022-08-20T17:56:19.356Z,4.80
2022-08-20T17:58:55.048Z,4.72
2022-08-20T18:01:25.812Z,5.55
2022-08-20T18:03:55.337Z,5.40
2022-08-20T18:06:31.261Z,2.10
2022-08-20T18:09:05.459Z,13.77
2022-08-20T18:14:31.121Z,1.48
2022-08-20T18:17:16.113Z,1.90
2022-08-20T18:20:13.397Z,1.90
2022-08-20T18:22:49.040Z,1.50
2022-08-20T18:25:29.298Z,1.52
2022-08-20T18:28:02.761Z,2.20
2022-08-20T18:30:30.235Z,2.50
2022-08-20T18:33:08.417Z,2.60
2022-08-20T18:35:45.929Z,2.30
2022-08-20T18:38:28.308Z,2.40
2022-08-20T18:41:07.270Z,2.60
2022-08-20T18:43:35.638Z,2.67
2022-08-20T18:46:13.217Z,3.00
2022-08-20T18:48:52.276Z,2.50
2022-08-20T18:51:26.564Z,2.30
2022-08-20T18:53:54.004Z,2.08
2022-08-20T18:56:36.323Z,2.15
2022-08-20T18:59:10.021Z,2.40
2022-08-20T19:01:39.454Z,2.15
2022-08-20T19:04:18.628Z,2.30
2022-08-20T19:06:51.670Z,2.00
2022-08-20T19:09:42.875Z,2.20
2022-08-20T19:12:21.976Z,2.13
2022-08-20T19:15:00.657Z,4.03
2022-08-20T19:17:46.041Z,2.67
2022-08-20T19:20:18.964Z,8.50
2022-08-20T19:22:49.993Z,5.65
2022-08-20T19:25:26.866Z,13.15
2022-08-20T19:27:56.574Z,3.85
2022-08-20T19:30:34.443Z,3.83
2022-08-20T19:33:03.072Z,4.97
2022-08-20T19:35:30.620Z,2.90
2022-08-20T19:38:02.213Z,3.80
2022-08-20T19:40:32.999Z,4.00
2022-08-20T19:43:13.011Z,2.17
2022-08-20T19:48:37.628Z,2.10
2022-08-20T19:51:12.737Z,2.45
2022-08-20T19:53:47.038Z,2.80
2022-08-20T19:56:17.706Z,2.83
2022-08-20T19:58:45.773Z,2.65
2022-08-20T20:01:18.664Z,4.45
2022-08-20T20:03:57.120Z,2.75
2022-08-20T20:06:26.058Z,3.53
2022-08-20T20:08:58.718Z,3.42
2022-08-20T20:11:30.876Z,3.75
2022-08-20T20:14:03.721Z,2.92
2022-08-20T20:16:32.929Z,2.70
2022-08-20T20:19:24.776Z,2.97
2022-08-20T20:21:51.079Z,2.60
2022-08-20T20:24:26.339Z,2.63
2022-08-20T20:26:54.092Z,2.85
2022-08-20T20:29:27.543Z,3.47
2022-08-20T20:31:57.213Z,3.30
2022-08-20T20:34:27.439Z,3.17
2022-08-20T20:37:04.853Z,2.88
2022-08-20T20:39:37.516Z,2.75
2022-08-20T20:42:07.015Z,2.55
2022-08-20T20:44:37.491Z,2.55
2022-08-20T20:47:08.464Z,3.00
2022-08-20T20:49:49.273Z,3.10
2022-08-20T20:52:22.497Z,3.15
2022-08-20T20:54:52.933Z,2.90
2022-08-20T20:57:37.957Z,2.97
2022-08-20T21:00:11.084Z,2.80
2022-08-20T21:02:38.488Z,3.20
2022-08-20T21:05:07.056Z,3.25
2022-08-20T21:07:34.483Z,3.05
2022-08-20T21:10:03.212Z,3.17
2022-08-20T21:12:30.620Z,3.20
2022-08-20T21:14:58.298Z,2.83
2022-08-20T21:17:25.716Z,3.50
2022-08-20T21:19:53.483Z,3.70
2022-08-20T21:22:21.862Z,3.35
2022-08-20T21:24:51.308Z,3.28
2022-08-20T21:27:24.521Z,2.80
2022-08-20T21:29:52.710Z,2.45
2022-08-20T21:32:21.149Z,2.55
2022-08-20T21:34:49.383Z,3.10
2022-08-20T21:37:17.762Z,3.10
2022-08-20T21:39:45.786Z,3.20
2022-08-20T21:42:28.973Z,3.00
2022-08-20T21:44:58.347Z,3.17
2022-08-20T21:47:26.558Z,3.13
2022-08-20T21:49:54.653Z,3.33
2022-08-20T21:52:22.512Z,2.80
2022-08-20T21:54:49.961Z,3.13
2022-08-20T21:57:20.897Z,3.33
2022-08-20T21:59:49.558Z,3.58
2022-08-20T22:02:19.340Z,4.03
2022-08-20T22:04:46.777Z,2.92
2022-08-20T22:07:14.692Z,3.50
2022-08-20T22:09:42.543Z,3.63
2022-08-20T22:12:23.046Z,3.53
2022-08-20T22:14:50.670Z,3.70
2022-08-20T22:17:19.793Z,3.55
2022-08-20T22:19:47.269Z,3.55
2022-08-20T22:22:15.783Z,3.50
2022-08-20T22:24:43.335Z,4.50
2022-08-20T22:27:10.913Z,4.32
2022-08-20T22:29:38.516Z,4.57
2022-08-20T22:32:06.344Z,4.45
2022-08-20T22:34:38.027Z,4.55
2022-08-20T22:37:05.754Z,4.30
2022-08-20T22:39:33.607Z,4.43
2022-08-20T22:42:01.017Z,4.60
2022-08-20T22:44:28.449Z,4.55
2022-08-20T22:47:00.338Z,4.68
2022-08-20T22:49:30.517Z,3.83
2022-08-20T22:51:59.518Z,3.90
2022-08-20T22:54:27.405Z,3.78
2022-08-20T22:56:56.093Z,4.50
2022-08-20T22:59:24.560Z,4.35
2022-08-20T23:01:52.495Z,3.70
2022-08-20T23:04:26.180Z,3.75
2022-08-20T23:06:54.511Z,3.42
2022-08-20T23:09:23.536Z,4.15
2022-08-20T23:11:52.263Z,3.97
2022-08-20T23:14:20.228Z,3.90
2022-08-20T23:16:52.665Z,3.38
2022-08-20T23:19:22.302Z,3.63
2022-08-20T23:21:50.314Z,3.92
2022-08-20T23:24:17.771Z,3.90
2022-08-20T23:26:52.766Z,3.60
2022-08-20T23:29:22.328Z,3.60
2022-08-20T23:31:52.989Z,3.40
2022-08-20T23:34:20.593Z,3.60
2022-08-20T23:36:48.765Z,3.30
2022-08-20T23:39:16.525Z,3.60
2022-08-20T23:41:47.615Z,3.42
2022-08-20T23:44:25.805Z,3.50
2022-08-20T23:46:55.266Z,3.45
2022-08-20T23:49:22.691Z,3.50
2022-08-20T23:51:50.119Z,4.18
2022-08-20T23:54:17.831Z,4.22
2022-08-20T23:56:45.317Z,4.50
2022-08-20T23:59:12.820Z,11.90
